sensor_id;sensor_type;location;lat;lon;timestamp;pressure;altitude;pressure_sealevel;temperature;humidity
32873;BME280;19224;52.462;16.898;2023-06-14T00:01:11;100487.20;;;15.91;100.00
32873;BME280;19224;52.462;16.898;2023-06-14T00:03:44;100486.81;;;15.90;100.00
32873;BME280;19224;52.462;16.898;2023-06-14T00:06:14;100483.05;;;15.93;100.00
32873;BME280;19224;52.462;16.898;2023-06-14T00:08:45;100476.84;;;15.91;100.00
32873;BME280;19224;52.462;16.898;2023-06-14T00:11:15;100478.58;;;15.92;100.00
32873;BME280;19224;52.462;16.898;2023-06-14T00:13:46;100473.83;;;15.95;100.00
32873;BME280;19224;52.462;16.898;2023-06-14T00:16:17;100478.00;;;16.01;100.00
32873;BME280;19224;52.462;16.898;2023-06-14T00:18:48;100477.59;;;16.07;100.00
32873;BME280;19224;52.462;16.898;2023-06-14T00:21:20;100476.83;;;16.05;100.00
32873;BME280;19224;52.462;16.898;2023-06-14T00:23:51;100476.05;;;15.96;100.00
32873;BME280;19224;52.462;16.898;2023-06-14T00:26:21;100477.61;;;15.93;100.00
32873;BME280;19224;52.462;16.898;2023-06-14T00:28:58;100478.58;;;15.92;100.00
32873;BME280;19224;52.462;16.898;2023-06-14T00:31:25;100476.36;;;15.84;100.00
32873;BME280;19224;52.462;16.898;2023-06-14T00:33:56;100475.09;;;15.83;100.00
32873;BME280;19224;52.462;16.898;2023-06-14T00:36:26;100469.56;;;15.84;100.00
32873;BME280;19224;52.462;16.898;2023-06-14T00:38:56;100480.31;;;15.86;100.00
32873;BME280;19224;52.462;16.898;2023-06-14T00:41:27;100474.30;;;15.88;100.00
32873;BME280;19224;52.462;16.898;2023-06-14T00:43:57;100478.95;;;15.86;100.00
32873;BME280;19224;52.462;16.898;2023-06-14T00:46:29;100472.00;;;15.89;100.00
32873;BME280;19224;52.462;16.898;2023-06-14T00:49:00;100476.72;;;15.92;100.00
32873;BME280;19224;52.462;16.898;2023-06-14T00:51:31;100474.30;;;15.95;100.00
32873;BME280;19224;52.462;16.898;2023-06-14T00:54:01;100472.66;;;15.99;100.00
32873;BME280;19224;52.462;16.898;2023-06-14T00:56:32;100480.60;;;16.02;100.00
32873;BME280;19224;52.462;16.898;2023-06-14T00:59:04;100482.73;;;16.04;100.00
32873;BME280;19224;52.462;16.898;2023-06-14T01:01:34;100481.48;;;16.03;100.00
32873;BME280;19224;52.462;16.898;2023-06-14T01:04:05;100482.75;;;15.97;100.00
32873;BME280;19224;52.462;16.898;2023-06-14T01:06:54;100478.97;;;15.93;100.00
32873;BME280;19224;52.462;16.898;2023-06-14T01:09:39;100483.25;;;15.90;100.00
32873;BME280;19224;52.462;16.898;2023-06-14T01:12:32;100481.89;;;15.90;100.00
32873;BME280;19224;52.462;16.898;2023-06-14T01:15:03;100482.07;;;15.94;100.00
32873;BME280;19224;52.462;16.898;2023-06-14T01:17:34;100474.13;;;15.91;100.00
32873;BME280;19224;52.462;16.898;2023-06-14T01:20:06;100475.48;;;15.91;100.00
32873;BME280;19224;52.462;16.898;2023-06-14T01:22:53;100465.00;;;15.92;100.00
32873;BME280;19224;52.462;16.898;2023-06-14T01:25:24;100473.45;;;15.94;100.00
32873;BME280;19224;52.462;16.898;2023-06-14T01:28:04;100467.72;;;15.92;100.00
32873;BME280;19224;52.462;16.898;2023-06-14T01:30:42;100474.69;;;15.96;100.00
32873;BME280;19224;52.462;16.898;2023-06-14T01:33:22;100465.77;;;15.94;100.00
32873;BME280;19224;52.462;16.898;2023-06-14T01:35:53;100463.64;;;15.92;100.00
32873;BME280;19224;52.462;16.898;2023-06-14T01:38:26;100459.66;;;15.90;100.00
32873;BME280;19224;52.462;16.898;2023-06-14T01:40:59;100452.39;;;15.91;100.00
32873;BME280;19224;52.462;16.898;2023-06-14T01:43:31;100450.06;;;15.92;100.00
32873;BME280;19224;52.462;16.898;2023-06-14T01:46:04;100449.47;;;15.87;100.00
32873;BME280;19224;52.462;16.898;2023-06-14T01:48:36;100448.59;;;15.79;100.00
32873;BME280;19224;52.462;16.898;2023-06-14T01:51:07;100448.30;;;15.77;100.00
32873;BME280;19224;52.462;16.898;2023-06-14T01:53:37;100452.58;;;15.74;100.00
32873;BME280;19224;52.462;16.898;2023-06-14T01:56:08;100450.06;;;15.71;100.00
32873;BME280;19224;52.462;16.898;2023-06-14T01:58:38;100446.58;;;15.69;100.00
32873;BME280;19224;52.462;16.898;2023-06-14T02:01:09;100441.44;;;15.64;100.00
32873;BME280;19224;52.462;16.898;2023-06-14T02:03:40;100442.48;;;15.62;100.00
32873;BME280;19224;52.462;16.898;2023-06-14T02:06:12;100432.58;;;15.54;100.00
32873;BME280;19224;52.462;16.898;2023-06-14T02:08:42;100438.82;;;15.56;100.00
32873;BME280;19224;52.462;16.898;2023-06-14T02:11:12;100441.72;;;15.46;100.00
32873;BME280;19224;52.462;16.898;2023-06-14T02:13:43;100435.02;;;15.44;100.00
32873;BME280;19224;52.462;16.898;2023-06-14T02:16:14;100439.00;;;15.46;100.00
32873;BME280;19224;52.462;16.898;2023-06-14T02:18:46;100442.69;;;15.45;100.00
32873;BME280;19224;52.462;16.898;2023-06-14T02:21:17;100451.61;;;15.47;100.00
32873;BME280;19224;52.462;16.898;2023-06-14T02:23:47;100445.48;;;15.43;100.00
32873;BME280;19224;52.462;16.898;2023-06-14T02:26:20;100446.54;;;15.41;100.00
32873;BME280;19224;52.462;16.898;2023-06-14T02:28:55;100441.11;;;15.41;100.00
32873;BME280;19224;52.462;16.898;2023-06-14T02:31:26;100450.23;;;15.40;100.00
32873;BME280;19224;52.462;16.898;2023-06-14T02:33:58;100444.13;;;15.43;100.00
32873;BME280;19224;52.462;16.898;2023-06-14T02:36:28;100449.05;;;15.44;100.00
32873;BME280;19224;52.462;16.898;2023-06-14T02:38:59;100447.14;;;15.46;100.00
32873;BME280;19224;52.462;16.898;2023-06-14T02:41:32;100449.17;;;15.42;100.00
32873;BME280;19224;52.462;16.898;2023-06-14T02:44:03;100445.57;;;15.42;100.00
32873;BME280;19224;52.462;16.898;2023-06-14T02:46:34;100442.95;;;15.47;100.00
32873;BME280;19224;52.462;16.898;2023-06-14T02:49:04;100448.77;;;15.48;100.00
32873;BME280;19224;52.462;16.898;2023-06-14T02:51:37;100456.47;;;15.56;100.00
32873;BME280;19224;52.462;16.898;2023-06-14T02:54:08;100446.16;;;15.54;100.00
32873;BME280;19224;52.462;16.898;2023-06-14T02:56:40;100450.43;;;15.51;100.00
32873;BME280;19224;52.462;16.898;2023-06-14T02:59:14;100458.27;;;15.48;100.00
32873;BME280;19224;52.462;16.898;2023-06-14T03:01:46;100455.45;;;15.43;100.00
32873;BME280;19224;52.462;16.898;2023-06-14T03:04:18;100456.27;;;15.45;100.00
32873;BME280;19224;52.462;16.898;2023-06-14T03:06:49;100459.75;;;15.47;100.00
32873;BME280;19224;52.462;16.898;2023-06-14T03:09:20;100451.61;;;15.47;100.00
32873;BME280;19224;52.462;16.898;2023-06-14T03:11:50;100451.59;;;15.54;100.00
32873;BME280;19224;52.462;16.898;2023-06-14T03:14:20;100451.81;;;15.58;100.00
32873;BME280;19224;52.462;16.898;2023-06-14T03:16:51;100442.30;;;15.58;100.00
32873;BME280;19224;52.462;16.898;2023-06-14T03:19:24;100449.84;;;15.53;100.00
32873;BME280;19224;52.462;16.898;2023-06-14T03:21:55;100449.27;;;15.55;100.00
32873;BME280;19224;52.462;16.898;2023-06-14T03:24:27;100451.69;;;15.59;100.00
32873;BME280;19224;52.462;16.898;2023-06-14T03:26:57;100456.15;;;15.60;100.00
32873;BME280;19224;52.462;16.898;2023-06-14T03:29:29;100450.64;;;15.62;100.00
32873;BME280;19224;52.462;16.898;2023-06-14T03:32:02;100453.27;;;15.63;100.00
32873;BME280;19224;52.462;16.898;2023-06-14T03:34:33;100459.95;;;15.58;100.00
32873;BME280;19224;52.462;16.898;2023-06-14T03:37:04;100471.78;;;15.57;100.00
32873;BME280;19224;52.462;16.898;2023-06-14T03:39:34;100470.05;;;15.56;100.00
32873;BME280;19224;52.462;16.898;2023-06-14T03:42:06;100471.95;;;15.54;100.00
32873;BME280;19224;52.462;16.898;2023-06-14T03:44:37;100462.37;;;15.55;100.00
32873;BME280;19224;52.462;16.898;2023-06-14T03:47:07;100467.52;;;15.60;100.00
32873;BME280;19224;52.462;16.898;2023-06-14T03:49:38;100468.28;;;15.62;100.00
32873;BME280;19224;52.462;16.898;2023-06-14T03:52:08;100475.67;;;15.67;100.00
32873;BME280;19224;52.462;16.898;2023-06-14T03:54:39;100467.49;;;15.53;100.00
32873;BME280;19224;52.462;16.898;2023-06-14T03:57:09;100467.90;;;15.61;100.00
32873;BME280;19224;52.462;16.898;2023-06-14T03:59:41;100470.61;;;15.61;100.00
32873;BME280;19224;52.462;16.898;2023-06-14T04:02:12;100471.61;;;15.67;100.00
32873;BME280;19224;52.462;16.898;2023-06-14T04:04:44;100463.84;;;15.68;100.00
32873;BME280;19224;52.462;16.898;2023-06-14T04:07:15;100474.98;;;15.77;100.00
32873;BME280;19224;52.462;16.898;2023-06-14T04:09:48;100474.78;;;15.80;100.00
32873;BME280;19224;52.462;16.898;2023-06-14T04:12:19;100480.72;;;15.80;100.00
32873;BME280;19224;52.462;16.898;2023-06-14T04:14:49;100488.48;;;15.79;100.00
32873;BME280;19224;52.462;16.898;2023-06-14T04:17:20;100479.16;;;15.83;100.00
32873;BME280;19224;52.462;16.898;2023-06-14T04:19:50;100484.77;;;15.87;100.00
32873;BME280;19224;52.462;16.898;2023-06-14T04:22:21;100485.97;;;15.90;100.00
32873;BME280;19224;52.462;16.898;2023-06-14T04:24:51;100493.91;;;15.93;100.00
32873;BME280;19224;52.462;16.898;2023-06-14T04:27:24;100486.91;;;15.96;100.00
32873;BME280;19224;52.462;16.898;2023-06-14T04:29:56;100491.37;;;15.97;100.00
32873;BME280;19224;52.462;16.898;2023-06-14T04:32:29;100482.75;;;15.97;100.00
32873;BME280;19224;52.462;16.898;2023-06-14T04:35:01;100484.41;;;15.93;100.00
32873;BME280;19224;52.462;16.898;2023-06-14T04:37:31;100482.45;;;15.88;100.00
32873;BME280;19224;52.462;16.898;2023-06-14T04:40:02;100483.52;;;15.92;100.00
32873;BME280;19224;52.462;16.898;2023-06-14T04:42:34;100490.22;;;15.94;100.00
32873;BME280;19224;52.462;16.898;2023-06-14T04:45:08;100486.23;;;15.92;100.00
32873;BME280;19224;52.462;16.898;2023-06-14T04:47:38;100479.64;;;15.89;100.00
32873;BME280;19224;52.462;16.898;2023-06-14T04:50:10;100478.95;;;15.86;100.00
32873;BME280;19224;52.462;16.898;2023-06-14T04:52:41;100491.28;;;15.91;100.00
32873;BME280;19224;52.462;16.898;2023-06-14T04:55:12;100485.28;;;15.86;100.00
32873;BME280;19224;52.462;16.898;2023-06-14T04:57:43;100493.02;;;15.92;100.00
32873;BME280;19224;52.462;16.898;2023-06-14T05:00:14;100494.98;;;15.97;100.00
32873;BME280;19224;52.462;16.898;2023-06-14T05:02:44;100501.08;;;16.08;100.00
32873;BME280;19224;52.462;16.898;2023-06-14T05:05:16;100506.04;;;16.08;100.00
32873;BME280;19224;52.462;16.898;2023-06-14T05:07:47;100500.48;;;16.10;100.00
32873;BME280;19224;52.462;16.898;2023-06-14T05:10:18;100501.67;;;16.13;100.00
32873;BME280;19224;52.462;16.898;2023-06-14T05:12:48;100496.03;;;16.16;100.00
32873;BME280;19224;52.462;16.898;2023-06-14T05:15:19;100488.27;;;16.17;100.00
32873;BME280;19224;52.462;16.898;2023-06-14T05:17:51;100489.23;;;16.16;100.00
32873;BME280;19224;52.462;16.898;2023-06-14T05:20:24;100500.30;;;16.27;100.00
32873;BME280;19224;52.462;16.898;2023-06-14T05:22:55;100500.30;;;16.27;100.00
32873;BME280;19224;52.462;16.898;2023-06-14T05:25:27;100505.91;;;16.31;100.00
32873;BME280;19224;52.462;16.898;2023-06-14T05:27:59;100501.77;;;16.39;100.00
32873;BME280;19224;52.462;16.898;2023-06-14T05:30:29;100505.44;;;16.38;100.00
32873;BME280;19224;52.462;16.898;2023-06-14T05:33:00;100501.27;;;16.40;100.00
32873;BME280;19224;52.462;16.898;2023-06-14T05:35:30;100511.77;;;16.39;100.00
32873;BME280;19224;52.462;16.898;2023-06-14T05:38:00;100510.11;;;16.43;100.00
32873;BME280;19224;52.462;16.898;2023-06-14T05:40:31;100504.92;;;16.53;100.00
32873;BME280;19224;52.462;16.898;2023-06-14T05:43:02;100508.70;;;16.64;100.00
32873;BME280;19224;52.462;16.898;2023-06-14T05:45:32;100513.92;;;16.67;100.00
32873;BME280;19224;52.462;16.898;2023-06-14T05:48:02;100522.55;;;16.74;100.00
32873;BME280;19224;52.462;16.898;2023-06-14T05:50:33;100516.56;;;16.69;100.00
32873;BME280;19224;52.462;16.898;2023-06-14T05:53:04;100516.17;;;16.68;100.00
32873;BME280;19224;52.462;16.898;2023-06-14T05:55:34;100523.23;;;16.70;100.00
32873;BME280;19224;52.462;16.898;2023-06-14T05:58:05;100525.87;;;16.72;100.00
32873;BME280;19224;52.462;16.898;2023-06-14T06:00:35;100524.50;;;16.79;100.00
32873;BME280;19224;52.462;16.898;2023-06-14T06:03:08;100525.04;;;16.91;100.00
32873;BME280;19224;52.462;16.898;2023-06-14T06:05:38;100530.12;;;17.02;100.00
32873;BME280;19224;52.462;16.898;2023-06-14T06:08:09;100532.70;;;17.10;100.00
32873;BME280;19224;52.462;16.898;2023-06-14T06:10:39;100535.63;;;17.14;100.00
32873;BME280;19224;52.462;16.898;2023-06-14T06:13:10;100536.02;;;17.15;100.00
32873;BME280;19224;52.462;16.898;2023-06-14T06:15:40;100533.44;;;17.26;100.00
32873;BME280;19224;52.462;16.898;2023-06-14T06:18:10;100537.83;;;17.22;100.00
32873;BME280;19224;52.462;16.898;2023-06-14T06:20:41;100542.67;;;17.24;100.00
32873;BME280;19224;52.462;16.898;2023-06-14T06:23:11;100546.54;;;17.27;100.00
32873;BME280;19224;52.462;16.898;2023-06-14T06:25:42;100548.09;;;17.31;100.00
32873;BME280;19224;52.462;16.898;2023-06-14T06:28:13;100545.48;;;17.36;100.00
32873;BME280;19224;52.462;16.898;2023-06-14T06:30:43;100540.95;;;17.42;100.00
32873;BME280;19224;52.462;16.898;2023-06-14T06:33:14;100538.59;;;17.50;100.00
32873;BME280;19224;52.462;16.898;2023-06-14T06:35:44;100532.73;;;17.56;100.00
32873;BME280;19224;52.462;16.898;2023-06-14T06:38:14;100538.55;;;17.57;100.00
32873;BME280;19224;52.462;16.898;2023-06-14T06:40:45;100551.89;;;17.55;100.00
32873;BME280;19224;52.462;16.898;2023-06-14T06:43:15;100538.66;;;17.56;100.00
32873;BME280;19224;52.462;16.898;2023-06-14T06:45:46;100542.58;;;17.64;100.00
32873;BME280;19224;52.462;16.898;2023-06-14T06:48:17;100537.86;;;17.61;100.00
32873;BME280;19224;52.462;16.898;2023-06-14T06:50:47;100544.28;;;17.72;100.00
32873;BME280;19224;52.462;16.898;2023-06-14T06:53:17;100546.78;;;17.75;100.00
32873;BME280;19224;52.462;16.898;2023-06-14T06:55:50;100548.12;;;17.82;100.00
32873;BME280;19224;52.462;16.898;2023-06-14T06:58:20;100547.80;;;17.87;100.00
32873;BME280;19224;52.462;16.898;2023-06-14T07:00:51;100546.87;;;17.93;100.00
32873;BME280;19224;52.462;16.898;2023-06-14T07:03:21;100562.23;;;17.94;100.00
32873;BME280;19224;52.462;16.898;2023-06-14T07:05:52;100558.91;;;17.96;100.00
32873;BME280;19224;52.462;16.898;2023-06-14T07:08:22;100546.16;;;17.97;100.00
32873;BME280;19224;52.462;16.898;2023-06-14T07:10:53;100562.62;;;17.95;100.00
32873;BME280;19224;52.462;16.898;2023-06-14T07:13:23;100565.84;;;18.07;100.00
32873;BME280;19224;52.462;16.898;2023-06-14T07:15:56;100564.16;;;18.24;100.00
32873;BME280;19224;52.462;16.898;2023-06-14T07:18:27;100572.34;;;18.37;100.00
32873;BME280;19224;52.462;16.898;2023-06-14T07:20:58;100567.48;;;18.47;100.00
32873;BME280;19224;52.462;16.898;2023-06-14T07:23:29;100569.56;;;18.44;100.00
32873;BME280;19224;52.462;16.898;2023-06-14T07:26:00;100565.13;;;18.61;100.00
32873;BME280;19224;52.462;16.898;2023-06-14T07:28:32;100565.55;;;18.67;100.00
32873;BME280;19224;52.462;16.898;2023-06-14T07:31:04;100562.64;;;18.63;100.00
32873;BME280;19224;52.462;16.898;2023-06-14T07:33:34;100563.84;;;18.72;100.00
32873;BME280;19224;52.462;16.898;2023-06-14T07:36:05;100564.50;;;18.81;100.00
32873;BME280;19224;52.462;16.898;2023-06-14T07:38:35;100565.16;;;18.84;100.00
32873;BME280;19224;52.462;16.898;2023-06-14T07:41:06;100567.13;;;18.82;100.00
32873;BME280;19224;52.462;16.898;2023-06-14T07:43:36;100572.42;;;18.96;100.00
32873;BME280;19224;52.462;16.898;2023-06-14T07:46:07;100570.34;;;19.00;100.00
32873;BME280;19224;52.462;16.898;2023-06-14T07:48:38;100577.95;;;19.07;100.00
32873;BME280;19224;52.462;16.898;2023-06-14T07:51:09;100574.64;;;19.27;100.00
32873;BME280;19224;52.462;16.898;2023-06-14T07:53:40;100575.63;;;19.50;99.73
32873;BME280;19224;52.462;16.898;2023-06-14T07:56:11;100575.24;;;19.54;97.17
32873;BME280;19224;52.462;16.898;2023-06-14T07:58:41;100572.53;;;19.59;95.84
32873;BME280;19224;52.462;16.898;2023-06-14T08:01:16;100574.68;;;19.61;96.25
32873;BME280;19224;52.462;16.898;2023-06-14T08:03:49;100574.91;;;19.64;96.40
32873;BME280;19224;52.462;16.898;2023-06-14T08:06:19;100573.35;;;19.72;96.24
32873;BME280;19224;52.462;16.898;2023-06-14T08:08:49;100568.49;;;19.76;95.03
32873;BME280;19224;52.462;16.898;2023-06-14T08:11:19;100566.50;;;19.67;93.45
32873;BME280;19224;52.462;16.898;2023-06-14T08:13:50;100569.94;;;19.58;94.09
32873;BME280;19224;52.462;16.898;2023-06-14T08:16:20;100565.55;;;19.50;93.82
32873;BME280;19224;52.462;16.898;2023-06-14T08:18:51;100567.66;;;19.52;91.57
32873;BME280;19224;52.462;16.898;2023-06-14T08:21:37;100560.09;;;19.50;91.12
32873;BME280;19224;52.462;16.898;2023-06-14T08:24:00;100559.94;;;19.41;92.60
32873;BME280;19224;52.462;16.898;2023-06-14T08:26:26;100565.26;;;19.42;92.38
32873;BME280;19224;52.462;16.898;2023-06-14T08:29:01;100570.02;;;19.51;90.15
32873;BME280;19224;52.462;16.898;2023-06-14T08:31:31;100570.19;;;19.55;90.06
32873;BME280;19224;52.462;16.898;2023-06-14T08:34:02;100571.81;;;19.63;90.45
32873;BME280;19224;52.462;16.898;2023-06-14T08:36:35;100572.37;;;19.79;89.52
32873;BME280;19224;52.462;16.898;2023-06-14T08:39:06;100568.89;;;19.88;87.21
32873;BME280;19224;52.462;16.898;2023-06-14T08:41:38;100565.91;;;19.80;82.26
32873;BME280;19224;52.462;16.898;2023-06-14T08:44:08;100566.09;;;19.55;85.15
32873;BME280;19224;52.462;16.898;2023-06-14T08:46:39;100564.95;;;19.57;87.32
32873;BME280;19224;52.462;16.898;2023-06-14T08:49:13;100571.34;;;19.69;84.99
32873;BME280;19224;52.462;16.898;2023-06-14T08:51:45;100572.97;;;19.77;83.22
32873;BME280;19224;52.462;16.898;2023-06-14T08:54:18;100574.51;;;19.86;83.77
32873;BME280;19224;52.462;16.898;2023-06-14T08:56:50;100581.56;;;20.18;83.21
32873;BME280;19224;52.462;16.898;2023-06-14T08:59:21;100582.09;;;20.34;80.23
32873;BME280;19224;52.462;16.898;2023-06-14T09:01:52;100582.22;;;20.60;80.87
32873;BME280;19224;52.462;16.898;2023-06-14T09:04:23;100577.47;;;20.84;81.11
32873;BME280;19224;52.462;16.898;2023-06-14T09:06:54;100571.88;;;21.07;78.45
32873;BME280;19224;52.462;16.898;2023-06-14T09:09:25;100571.50;;;21.12;77.31
32873;BME280;19224;52.462;16.898;2023-06-14T09:11:56;100568.45;;;21.26;77.69
32873;BME280;19224;52.462;16.898;2023-06-14T09:14:26;100570.93;;;21.29;77.02
32873;BME280;19224;52.462;16.898;2023-06-14T09:16:56;100578.11;;;21.41;78.02
32873;BME280;19224;52.462;16.898;2023-06-14T09:19:27;100573.17;;;21.35;77.32
32873;BME280;19224;52.462;16.898;2023-06-14T09:21:59;100569.79;;;21.37;78.26
32873;BME280;19224;52.462;16.898;2023-06-14T09:24:29;100574.13;;;21.45;78.19
32873;BME280;19224;52.462;16.898;2023-06-14T09:26:59;100577.22;;;21.51;77.90
32873;BME280;19224;52.462;16.898;2023-06-14T09:29:30;100576.97;;;21.49;77.82
32873;BME280;19224;52.462;16.898;2023-06-14T09:32:00;100571.80;;;21.35;76.85
32873;BME280;19224;52.462;16.898;2023-06-14T09:34:32;100569.89;;;20.98;79.41
32873;BME280;19224;52.462;16.898;2023-06-14T09:37:03;100574.73;;;20.73;82.23
32873;BME280;19224;52.462;16.898;2023-06-14T09:39:34;100567.05;;;20.56;82.17
32873;BME280;19224;52.462;16.898;2023-06-14T09:42:18;100565.16;;;20.34;79.35
32873;BME280;19224;52.462;16.898;2023-06-14T09:44:40;100564.31;;;20.39;77.56
32873;BME280;19224;52.462;16.898;2023-06-14T09:47:11;100563.06;;;20.54;77.86
32873;BME280;19224;52.462;16.898;2023-06-14T09:49:43;100558.58;;;20.70;77.14
32873;BME280;19224;52.462;16.898;2023-06-14T09:52:19;100549.12;;;20.85;76.32
32873;BME280;19224;52.462;16.898;2023-06-14T09:54:50;100547.06;;;21.09;75.10
32873;BME280;19224;52.462;16.898;2023-06-14T09:57:25;100543.52;;;21.29;72.81
32873;BME280;19224;52.462;16.898;2023-06-14T09:59:59;100544.52;;;21.65;73.16
32873;BME280;19224;52.462;16.898;2023-06-14T10:02:37;100544.17;;;22.05;71.32
32873;BME280;19224;52.462;16.898;2023-06-14T10:05:14;100539.57;;;22.35;70.03
32873;BME280;19224;52.462;16.898;2023-06-14T10:08:13;100529.81;;;22.72;67.46
32873;BME280;19224;52.462;16.898;2023-06-14T10:10:40;100535.61;;;22.78;65.56
32873;BME280;19224;52.462;16.898;2023-06-14T10:13:11;100535.45;;;22.80;64.64
32873;BME280;19224;52.462;16.898;2023-06-14T10:16:10;100528.27;;;22.88;64.97
32873;BME280;19224;52.462;16.898;2023-06-14T10:24:45;100529.38;;;23.10;59.98
32873;BME280;19224;52.462;16.898;2023-06-14T10:27:17;100525.45;;;22.69;59.86
32873;BME280;19224;52.462;16.898;2023-06-14T10:32:32;100517.56;;;23.19;60.81
32873;BME280;19224;52.462;16.898;2023-06-14T10:35:07;100522.58;;;23.20;58.55
32873;BME280;19224;52.462;16.898;2023-06-14T10:37:38;100523.16;;;23.23;59.72
32873;BME280;19224;52.462;16.898;2023-06-14T10:40:29;100523.59;;;23.28;59.44
32873;BME280;19224;52.462;16.898;2023-06-14T10:42:54;100518.53;;;23.52;58.72
32873;BME280;19224;52.462;16.898;2023-06-14T10:45:25;100517.72;;;23.65;57.93
32873;BME280;19224;52.462;16.898;2023-06-14T10:47:57;100512.97;;;23.67;58.19
32873;BME280;19224;52.462;16.898;2023-06-14T10:50:30;100515.94;;;22.43;62.39
32873;BME280;19224;52.462;16.898;2023-06-14T10:53:21;100510.19;;;22.26;64.61
32873;BME280;19224;52.462;16.898;2023-06-14T10:55:37;100516.16;;;21.81;67.35
32873;BME280;19224;52.462;16.898;2023-06-14T10:58:07;100509.88;;;21.64;68.21
32873;BME280;19224;52.462;16.898;2023-06-14T11:00:38;100510.85;;;21.68;69.02
32873;BME280;19224;52.462;16.898;2023-06-14T11:06:13;100516.61;;;21.60;66.90
32873;BME280;19224;52.462;16.898;2023-06-14T11:11:36;100503.23;;;21.72;66.42
32873;BME280;19224;52.462;16.898;2023-06-14T11:14:09;100505.48;;;22.08;65.34
32873;BME280;19224;52.462;16.898;2023-06-14T11:16:40;100509.78;;;22.30;64.86
32873;BME280;19224;52.462;16.898;2023-06-14T11:19:11;100502.91;;;22.75;64.35
32873;BME280;19224;52.462;16.898;2023-06-14T11:21:41;100500.63;;;22.90;62.62
32873;BME280;19224;52.462;16.898;2023-06-14T11:24:12;100502.12;;;23.03;62.41
32873;BME280;19224;52.462;16.898;2023-06-14T11:26:42;100503.78;;;23.34;61.07
32873;BME280;19224;52.462;16.898;2023-06-14T11:29:14;100500.68;;;23.09;60.06
32873;BME280;19224;52.462;16.898;2023-06-14T11:31:45;100496.02;;;22.90;61.40
32873;BME280;19224;52.462;16.898;2023-06-14T11:34:16;100494.59;;;22.96;61.07
32873;BME280;19224;52.462;16.898;2023-06-14T11:36:47;100485.30;;;23.21;60.87
32873;BME280;19224;52.462;16.898;2023-06-14T11:39:23;100492.55;;;23.41;59.37
32873;BME280;19224;52.462;16.898;2023-06-14T11:41:50;100487.60;;;23.73;58.25
32873;BME280;19224;52.462;16.898;2023-06-14T11:44:20;100488.16;;;24.05;56.50
32873;BME280;19224;52.462;16.898;2023-06-14T11:46:51;100493.70;;;24.19;53.75
32873;BME280;19224;52.462;16.898;2023-06-14T11:49:22;100484.53;;;24.41;53.39
32873;BME280;19224;52.462;16.898;2023-06-14T11:51:55;100481.59;;;24.52;53.74
32873;BME280;19224;52.462;16.898;2023-06-14T11:54:26;100483.43;;;24.57;52.69
32873;BME280;19224;52.462;16.898;2023-06-14T11:56:56;100475.56;;;24.62;53.47
32873;BME280;19224;52.462;16.898;2023-06-14T11:59:31;100475.42;;;24.64;52.38
32873;BME280;19224;52.462;16.898;2023-06-14T12:02:03;100464.88;;;24.50;51.63
32873;BME280;19224;52.462;16.898;2023-06-14T12:04:34;100467.97;;;24.37;52.20
32873;BME280;19224;52.462;16.898;2023-06-14T12:07:12;100468.97;;;24.00;53.47
32873;BME280;19224;52.462;16.898;2023-06-14T12:12:34;100459.98;;;23.56;54.14
32873;BME280;19224;52.462;16.898;2023-06-14T12:15:05;100458.70;;;23.41;55.16
32873;BME280;19224;52.462;16.898;2023-06-14T12:17:37;100459.34;;;23.29;54.36
32873;BME280;19224;52.462;16.898;2023-06-14T12:20:13;100467.28;;;23.32;52.57
32873;BME280;19224;52.462;16.898;2023-06-14T12:22:52;100461.94;;;23.21;52.79
32873;BME280;19224;52.462;16.898;2023-06-14T12:25:28;100461.64;;;23.43;52.87
32873;BME280;19224;52.462;16.898;2023-06-14T12:28:08;100457.88;;;23.54;52.49
32873;BME280;19224;52.462;16.898;2023-06-14T12:30:41;100445.70;;;23.66;52.10
32873;BME280;19224;52.462;16.898;2023-06-14T12:33:12;100449.30;;;23.85;51.70
32873;BME280;19224;52.462;16.898;2023-06-14T12:35:43;100448.95;;;24.07;50.47
32873;BME280;19224;52.462;16.898;2023-06-14T12:38:14;100460.39;;;24.12;50.51
32873;BME280;19224;52.462;16.898;2023-06-14T12:40:46;100445.11;;;24.27;50.58
32873;BME280;19224;52.462;16.898;2023-06-14T12:43:16;100444.33;;;24.44;50.80
32873;BME280;19224;52.462;16.898;2023-06-14T12:45:47;100443.87;;;24.62;49.69
32873;BME280;19224;52.462;16.898;2023-06-14T12:48:17;100448.33;;;24.73;49.95
32873;BME280;19224;52.462;16.898;2023-06-14T12:50:48;100451.33;;;24.79;48.16
32873;BME280;19224;52.462;16.898;2023-06-14T12:53:18;100445.81;;;24.79;47.99
32873;BME280;19224;52.462;16.898;2023-06-14T12:55:51;100438.25;;;24.81;48.59
32873;BME280;19224;52.462;16.898;2023-06-14T12:58:22;100435.55;;;25.02;47.38
32873;BME280;19224;52.462;16.898;2023-06-14T13:00:52;100441.17;;;24.97;47.16
32873;BME280;19224;52.462;16.898;2023-06-14T13:03:25;100436.97;;;24.89;46.80
32873;BME280;19224;52.462;16.898;2023-06-14T13:05:55;100440.47;;;24.95;46.97
32873;BME280;19224;52.462;16.898;2023-06-14T13:08:26;100434.05;;;25.08;47.54
32873;BME280;19224;52.462;16.898;2023-06-14T13:10:57;100434.02;;;25.35;46.42
32873;BME280;19224;52.462;16.898;2023-06-14T13:13:27;100427.83;;;25.37;45.34